Share

Coal Hill, AR

RVO CLARKSVILLE 64 W. (KARCLARK3) Elev 394 ft | 35.46 °N, 93.53 °W | Change Station

Current weather conditions updated 9 seconds ago

Clear
Clear
57.1 °F
Feels Like 57.1 °F
N
0.0
Wind Variable Wind from ESE
Gusts 0.0 mph
Sunrise 6:37 AM
Sunset 7:51 PM
Moon Waning Gibbous

Tomorrow is forecast to be nearly the same temperature as today. Chance of late night showers tomorrow night.

Pressure 30.12 in
Visibility 10.0 miles
Clouds Clear
Dew Point 51 °F
Humidity 79%
Rainfall 0.00 in
Snow Depth Not available.
UV 0.0 out of 16
Pollen 9.60 out of 12
Air Quality Not available.
Flu Activity Sporadic
METAR KRUE 200353Z AUTO 09003KT 10SM CLR 18/10 A3013 RMK AO2 SLP198 T01780100 $

More Conditions Fewer Conditions

Pressure 30.12 in
Visibility 10.0 miles
Clouds Clear
Dew Point 51 °F
Humidity 79%
Rainfall 0.00 in
Snow Depth Not available.
UV 0.0 out of 16
Pollen 9.60 out of 12
Air Quality Not available.
Flu Activity Sporadic
METAR KRUE 200353Z AUTO 09003KT 10SM CLR 18/10 A3013 RMK AO2 SLP198 T01780100 $

More Conditions Fewer Conditions

10-Day Weather Forecast

Almanac

Astronomy

Apr. 19, 2014 Rise Set
Actual Time 6:37 AM CDT 7:51 PM CDT
Civil Twilight 6:10 AM CDT 8:17 PM CDT
Nautical Twilight 5:39 AM CDT 8:49 PM CDT
Astronomical Twilight 5:06 AM CDT 9:22 PM CDT
Moon No Moon Rise 10:01 AM CDT (4/19)
Length of Visible Light 14h 06m
Length of Day
13h 13m
Tomorrow will be 2m 5s longer.
Waning Gibbous, 74% of the Moon is Illuminated
Apr 20
Waning Gibbous
Apr 22
Last Quarter
Apr 29
New
May 6
First Quarter
May 14
Full

Today's Extremes

State Highs State Lows

Community

  • Cherry Blossoms
    Cherry Blossoms
  • White-Crowned Sparrow
    White-Crowned Sparrow
  • New Day
    New Day
  • Happy Easter!
    Happy Easter!
  • poppy bloom near Mazar-e-Sharif
    poppy bloom near Mazar-e-Sharif

WunderPhotos

Upload Photos

1,703,079 photos uploaded!

WunderBlogs® & News

Nearby

Snow Depth

Station Depth Elevation
No new snow has been reported.

Coastal Water Temperatures

Place Temperature
No Stations Reporting

Earthquake Activity

City Distance Mag. Time & Date
No recent earthquake activity has been reported nearby.
Minimum magnitude displayed is 2.5.

Nearby Weather Stations

Station Location Temp. Dew Point Humidity Wind Precip. Elev Updated Type
RVO CLARKSVILLE 64 W., Clarksville, AR 57.1 °F 51 °F 79% ESE  at  0.0 mph 0.00 in / hr 394 ft 11:13 PM CDT Rapid Fire
The GRAPHIC(West Main), Clarksville, AR 57.6 °F 50 °F 76% East  at  0.0 mph 0.00 in / hr 410 ft 11:13 PM CDT Rapid Fire
Booneville Municipal Airport, Booneville, AR 59.3 °F 53 °F 79% SSW  at  0.0 mph 0.00 in / hr 460 ft 11:01 PM CDT Normal
RAWS , Booneville, AR - - - NNW  at  1 mph 0.00 in / hr 342 ft 10:02 PM CDT MADIS
RAWS , Oark, AR - - - ESE  at  6 mph 0.00 in / hr 2100 ft 10:08 PM CDT MADIS

Show More Stations Show Fewer Stations

What do you think?

We're not finished. Please let us know what you like, what you don't like, and what you are still missing.